Time;durP1;ratioP1;P1;durP2;ratioP2;P2;SDS_P1;SDS_P2;PMS_P1;PMS_P2;Temp;Humidity;BMP_temperature;BMP_pressure;BME280_temperature;BME280_humidity;BME280_pressure;Samples;Min_cycle;Max_cycle;Signal;HPM_P1;HPM_P2
2021/03/02 00:02:08;;;;;;;7.03;5.07;;;11.30;91.10;;;12.58;47.82;102676.28;4964128;27;98421;-54
2021/03/02 00:04:34;;;;;;;8.33;5.70;;;11.10;91.20;;;12.50;48.14;102670.22;4952343;27;98641;-54
2021/03/02 00:07:00;;;;;;;5.50;4.90;;;11.00;91.60;;;12.56;48.50;102672.78;4965125;28;97878;-56
2021/03/02 00:09:26;;;;;;;5.23;4.73;;;11.00;91.50;;;12.47;49.96;102675.56;4942123;28;100917;-54
2021/03/02 00:11:53;;;;;;;5.97;4.83;;;10.90;91.80;;;12.46;48.03;102676.47;4978587;27;99910;-55
2021/03/02 00:14:20;;;;;;;5.50;4.83;;;11.00;91.40;;;12.46;49.83;102676.47;4958198;27;99554;-54
2021/03/02 00:16:55;;;;;;;6.57;5.50;;;10.90;91.40;;;12.48;49.33;102677.31;4963602;27;98732;-56
2021/03/02 00:19:49;;;;;;;4.53;4.10;;;10.90;91.60;;;12.51;50.32;102680.81;4964852;27;97982;-54
2021/03/02 00:22:28;;;;;;;5.83;5.07;;;10.90;92.50;;;12.31;49.40;102681.94;4949097;28;100077;-56
2021/03/02 00:24:57;;;;;;;7.67;5.10;;;10.80;91.90;;;12.27;45.17;102682.84;4944713;27;99605;-54
2021/03/02 00:27:24;;;;;;;7.00;4.60;;;10.80;91.40;;;12.37;50.21;102682.72;4971632;27;97994;-53
2021/03/02 00:29:51;;;;;;;6.10;5.23;;;10.80;92.10;;;12.30;47.79;102685.47;4952008;27;98707;-58
2021/03/02 00:32:21;;;;;;;5.07;4.40;;;10.80;91.30;;;12.30;50.67;102675.75;4952689;28;100901;-56
2021/03/02 00:34:48;;;;;;;4.97;4.47;;;10.70;92.60;;;12.24;50.77;102672.28;4959472;27;100244;-56
2021/03/02 00:37:15;;;;;;;4.73;4.03;;;10.70;92.10;;;12.38;50.77;102673.88;4970486;28;99333;-54
2021/03/02 00:39:42;;;;;;;4.83;4.10;;;10.90;92.40;;;12.36;51.05;102680.09;4965238;27;99414;-56
2021/03/02 00:42:08;;;;;;;5.47;4.83;;;10.80;93.70;;;12.47;50.39;102681.75;4959627;28;100456;-57
2021/03/02 00:44:34;;;;;;;7.57;5.63;;;11.00;92.00;;;12.38;47.99;102684.47;4991329;27;98436;-60
2021/03/02 00:47:01;;;;;;;7.30;6.33;;;10.90;91.20;;;12.21;46.60;102679.38;4960456;28;98647;-57
2021/03/02 00:49:27;;;;;;;9.57;6.83;;;10.70;91.70;;;11.98;46.55;102678.72;4970037;28;97651;-56
2021/03/02 00:51:53;;;;;;;5.83;4.97;;;10.50;91.80;;;12.00;49.89;102674.28;4956087;28;101043;-56
2021/03/02 00:54:19;;;;;;;6.07;4.67;;;10.40;92.30;;;12.02;50.43;102684.88;4987785;27;97742;-55
2021/03/02 00:56:45;;;;;;;6.20;5.53;;;10.40;92.30;;;12.03;49.65;102681.34;4957377;27;98816;-54
2021/03/02 00:59:11;;;;;;;9.03;6.40;;;10.50;91.90;;;12.17;50.03;102682.06;4988497;27;97472;-57
2021/03/02 01:01:37;;;;;;;8.50;6.47;;;10.60;92.30;;;12.21;49.80;102675.84;4957912;27;98162;-57
2021/03/02 01:04:04;;;;;;;6.87;6.00;;;10.70;91.90;;;12.17;47.09;102685.59;4970928;27;97340;-58
2021/03/02 01:06:30;;;;;;;7.63;5.87;;;10.70;91.40;;;12.19;49.59;102689.09;4964905;28;99704;-58
2021/03/02 01:08:56;;;;;;;8.93;6.93;;;10.60;91.70;;;12.17;49.01;102690.00;4965511;27;98756;-55
2021/03/02 01:11:22;;;;;;;10.67;7.30;;;10.60;91.80;;;12.11;48.18;102685.63;4947672;27;100380;-53
2021/03/02 01:13:48;;;;;;;7.50;6.57;;;10.60;91.70;;;11.90;49.20;102680.56;4982283;27;101148;-57
2021/03/02 01:16:14;;;;;;;6.03;5.40;;;10.40;91.80;;;12.01;50.11;102684.00;4969700;28;98832;-58
2021/03/02 01:18:40;;;;;;;5.23;4.73;;;10.40;92.40;;;12.13;50.33;102688.25;4975806;27;98115;-55
2021/03/02 01:21:07;;;;;;;5.33;3.90;;;10.60;92.20;;;12.18;51.33;102679.41;4968544;28;104852;-56
2021/03/02 01:23:32;;;;;;;6.97;5.40;;;10.60;93.90;;;12.10;49.61;102681.25;4947232;27;98116;-54
2021/03/02 01:25:58;;;;;;;9.90;6.97;;;10.60;91.80;;;12.12;50.68;102682.09;4967611;28;108311;-55
2021/03/02 01:28:24;;;;;;;8.63;6.80;;;10.60;92.60;;;12.20;50.71;102680.25;4960952;28;102168;-55
2021/03/02 01:30:50;;;;;;;5.20;4.70;;;10.60;92.60;;;12.15;51.26;102682.09;4963319;27;101312;-58
2021/03/02 01:33:15;;;;;;;4.60;4.20;;;10.60;92.70;;;12.19;51.27;102681.16;4979478;27;99451;-53
2021/03/02 01:35:41;;;;;;;6.53;5.33;;;10.60;93.20;;;12.23;49.57;102684.63;4953323;27;98104;-57
2021/03/02 01:38:07;;;;;;;6.93;4.97;;;10.70;91.40;;;12.30;50.30;102680.19;4980402;27;98621;-54
2021/03/02 01:40:33;;;;;;;5.30;4.80;;;10.80;92.00;;;12.38;50.00;102678.31;4969270;28;99045;-58
2021/03/02 01:42:59;;;;;;;4.43;4.03;;;10.90;91.70;;;12.39;50.92;102677.41;4954267;27;97978;-52
2021/03/02 01:45:26;;;;;;;12.43;8.80;;;10.90;94.40;;;12.25;48.70;102671.38;4986196;27;99216;-57
2021/03/02 01:47:53;;;;;;;5.57;4.60;;;10.70;90.80;;;12.32;50.54;102668.69;4957789;27;99373;-57
2021/03/02 01:50:21;;;;;;;4.70;4.27;;;10.70;92.10;;;12.35;50.74;102673.06;4969357;28;99738;-58
2021/03/02 01:52:48;;;;;;;7.37;6.67;;;10.80;92.50;;;12.35;48.37;102667.75;4961350;27;98846;-57
2021/03/02 01:55:17;;;;;;;9.07;7.47;;;10.80;91.30;;;12.32;48.96;102668.69;4962021;27;98173;-53
2021/03/02 01:57:44;;;;;;;8.17;6.37;;;10.70;91.50;;;12.32;49.70;102667.81;4969247;28;98337;-60
2021/03/02 02:00:32;;;;;;;4.70;3.83;;;10.70;91.30;;;12.44;50.27;102665.00;4946119;28;103253;-50
2021/03/02 02:03:23;;;;;;;5.40;4.30;;;10.90;92.50;;;12.49;50.33;102661.41;4966474;28;98180;-53
2021/03/02 02:06:11;;;;;;;6.53;5.83;;;11.00;92.60;;;12.51;50.18;102664.91;4950510;27;98391;-58
2021/03/02 02:08:54;;;;;;;4.63;4.20;;;11.00;91.10;;;12.57;50.00;102663.94;4961957;27;98678;-58
2021/03/02 02:11:40;;;;;;;4.67;4.17;;;11.10;91.70;;;12.57;49.87;102663.94;4983710;27;101850;-57
2021/03/02 02:14:43;;;;;;;8.47;7.60;;;11.10;91.40;;;12.43;47.13;102664.13;4940937;27;97692;-58
2021/03/02 02:17:40;;;;;;;5.67;4.80;;;10.90;90.20;;;12.47;49.97;102652.63;4946736;28;97488;-58
2021/03/02 02:20:11;;;;;;;8.33;6.63;;;10.80;91.70;;;12.37;48.68;102660.69;4934061;27;99789;-58
2021/03/02 02:23:03;;;;;;;8.93;7.67;;;10.80;90.60;;;12.37;49.78;102660.69;4971367;27;98608;-53
2021/03/02 02:25:44;;;;;;;8.90;7.60;;;10.70;90.80;;;12.24;48.96;102664.34;4960248;28;99038;-56
2021/03/02 02:28:11;;;;;;;9.07;7.53;;;10.60;91.00;;;12.36;49.93;102662.44;4983030;27;98063;-57
2021/03/02 02:30:40;;;;;;;6.50;5.50;;;10.80;92.20;;;12.34;49.86;102660.72;4959620;28;98951;-53
2021/03/02 02:33:10;;;;;;;8.27;7.20;;;10.70;91.10;;;12.28;49.53;102653.69;4964410;27;99348;-56
2021/03/02 02:35:41;;;;;;;6.60;5.83;;;10.70;91.30;;;12.23;50.33;102659.94;4961755;28;98562;-57
2021/03/02 02:38:10;;;;;;;5.80;5.10;;;10.60;91.60;;;12.27;50.30;102661.66;4965416;27;100134;-56
2021/03/02 02:40:38;;;;;;;5.57;5.03;;;10.60;91.70;;;12.31;50.66;102655.47;4977464;27;97064;-58
2021/03/02 02:43:05;;;;;;;6.83;5.27;;;10.70;92.80;;;12.34;49.65;102651.00;4960673;27;100320;-57
2021/03/02 02:45:32;;;;;;;6.40;5.73;;;10.80;91.30;;;12.37;49.71;102650.09;4942784;27;97064;-58
2021/03/02 02:47:58;;;;;;;8.17;5.67;;;10.80;91.40;;;12.37;50.31;102644.78;4961346;27;98329;-56
2021/03/02 02:50:26;;;;;;;6.27;4.53;;;10.80;92.20;;;12.37;50.29;102650.09;4969131;27;97056;-53
2021/03/02 02:52:52;;;;;;;7.43;5.50;;;10.90;91.90;;;12.42;49.86;102654.41;4985402;28;99618;-57
2021/03/02 02:55:19;;;;;;;6.03;5.33;;;10.90;91.10;;;12.41;48.04;102657.09;4976172;28;97075;-55
2021/03/02 02:57:50;;;;;;;6.30;4.80;;;10.90;91.10;;;12.48;50.13;102654.38;4949961;28;97676;-54
2021/03/02 03:00:19;;;;;;;5.13;4.63;;;11.00;92.10;;;12.57;50.01;102652.50;4984054;27;100178;-56
2021/03/02 03:02:50;;;;;;;6.47;5.83;;;11.20;93.30;;;12.56;49.18;102651.63;4965832;28;102428;-56
2021/03/02 03:05:22;;;;;;;6.07;5.47;;;11.20;90.80;;;12.58;48.37;102657.75;4991826;28;97328;-57
2021/03/02 03:07:55;;;;;;;9.20;7.03;;;11.10;91.00;;;12.41;48.41;102651.78;5001447;27;99197;-53
2021/03/02 03:10:26;;;;;;;4.80;4.30;;;10.90;90.70;;;12.46;50.02;102663.22;5000951;27;103713;-54
2021/03/02 03:12:57;;;;;;;5.47;4.83;;;10.80;91.90;;;12.56;49.83;102656.91;4980458;27;100168;-55
2021/03/02 03:15:24;;;;;;;6.13;4.73;;;11.00;91.90;;;12.56;49.13;102651.63;4978478;28;96940;-53
2021/03/02 03:17:54;;;;;;;6.17;5.53;;;11.00;91.30;;;12.52;49.39;102649.91;4968980;27;97096;-59
2021/03/02 03:20:22;;;;;;;8.60;7.50;;;10.90;90.60;;;12.26;44.37;102652.84;4991435;27;105098;-55
2021/03/02 03:22:49;;;;;;;5.90;5.23;;;10.70;90.20;;;12.30;50.36;102653.72;4971907;28;97552;-58
2021/03/02 03:25:16;;;;;;;5.97;5.37;;;10.60;92.30;;;12.34;49.71;102651.00;5002340;27;97030;-55
2021/03/02 03:27:56;;;;;;;5.13;4.63;;;10.60;91.40;;;12.37;49.59;102645.66;5001747;27;97211;-54
2021/03/02 03:30:25;;;;;;;5.77;4.80;;;10.70;91.50;;;12.38;50.15;102657.13;4990411;28;105424;-54
2021/03/02 03:33:00;;;;;;;5.53;5.03;;;10.70;91.30;;;12.41;49.53;102655.31;4986671;27;97092;-57
2021/03/02 03:35:27;;;;;;;8.60;7.13;;;10.80;90.70;;;12.39;49.36;102656.25;4975813;27;97060;-54
2021/03/02 03:37:53;;;;;;;9.83;7.03;;;10.80;90.80;;;12.22;49.19;102653.78;4980997;27;103931;-60
2021/03/02 03:40:20;;;;;;;5.07;4.53;;;10.60;91.00;;;12.18;50.27;102655.59;4979511;28;98364;-53
2021/03/02 03:42:46;;;;;;;6.33;4.73;;;10.50;91.90;;;12.17;50.22;102664.44;4958864;28;97326;-56
2021/03/02 03:45:13;;;;;;;5.17;4.67;;;10.60;91.20;;;12.27;50.36;102659.00;4979313;27;97663;-53
2021/03/02 03:47:39;;;;;;;4.50;4.10;;;10.70;92.30;;;12.35;50.14;102657.19;4987313;27;97930;-56
2021/03/02 03:50:06;;;;;;;6.13;5.00;;;10.80;91.00;;;12.34;49.79;102652.78;4992679;27;100284;-54
2021/03/02 03:52:35;;;;;;;6.23;4.93;;;10.80;90.70;;;12.42;49.51;102653.53;4991974;28;97469;-55
2021/03/02 03:55:03;;;;;;;8.43;6.03;;;11.00;91.40;;;12.28;47.94;102658.13;4984267;28;96924;-55
2021/03/02 03:57:30;;;;;;;7.37;6.57;;;10.70;89.80;;;12.03;47.23;102660.16;4981498;27;97451;-53
2021/03/02 03:59:57;;;;;;;6.93;6.13;;;10.40;90.60;;;12.15;50.40;102662.66;4979245;27;98831;-54
2021/03/02 04:02:24;;;;;;;5.33;4.70;;;10.50;92.10;;;12.23;50.65;102652.00;4994153;27;100014;-57
2021/03/02 04:04:50;;;;;;;5.97;5.23;;;10.60;92.10;;;12.19;48.25;102657.34;4997934;27;97906;-58
2021/03/02 04:07:17;;;;;;;6.03;5.43;;;10.60;90.30;;;12.16;49.58;102662.69;4993546;27;97268;-53
2021/03/02 04:09:45;;;;;;;5.97;5.03;;;10.50;91.30;;;12.14;50.09;102663.56;4985238;27;97388;-53
2021/03/02 04:12:12;;;;;;;6.50;5.53;;;10.50;91.80;;;12.11;49.75;102656.53;4992401;27;100389;-53
2021/03/02 04:14:37;;;;;;;5.03;4.10;;;10.40;90.90;;;12.13;50.46;102662.69;5000240;27;96943;-55
2021/03/02 04:17:04;;;;;;;6.43;4.80;;;10.50;91.90;;;12.18;50.03;102663.53;4991255;27;97342;-57
2021/03/02 04:19:30;;;;;;;5.07;4.57;;;10.60;91.20;;;12.20;50.21;102663.50;4989709;27;99957;-56
2021/03/02 04:21:56;;;;;;;5.60;4.97;;;10.60;91.70;;;12.09;47.67;102666.25;4963879;27;97403;-60
2021/03/02 04:24:22;;;;;;;4.67;4.10;;;10.50;90.50;;;12.12;49.21;102660.94;4991471;27;97416;-55
2021/03/02 04:26:48;;;;;;;6.43;5.23;;;10.50;91.40;;;11.86;47.71;102657.66;4977879;28;97199;-56
2021/03/02 04:29:14;;;;;;;5.10;4.60;;;10.20;90.50;;;11.92;50.24;102662.91;4989969;27;96805;-56
2021/03/02 04:31:40;;;;;;;5.03;4.53;;;10.20;91.30;;;12.03;50.69;102661.03;4973363;28;100551;-56
2021/03/02 04:34:05;;;;;;;5.40;4.17;;;10.40;92.80;;;12.10;50.76;102667.13;4977936;27;97489;-55
2021/03/02 04:36:32;;;;;;;4.77;4.27;;;10.50;93.90;;;12.15;49.16;102660.94;4967125;28;98492;-54
2021/03/02 04:38:57;;;;;;;6.77;5.77;;;10.70;91.00;;;12.19;50.02;102657.34;5013523;27;97059;-60
2021/03/02 04:41:23;;;;;;;5.13;4.60;;;10.70;91.50;;;12.23;50.39;102658.19;4980512;28;103755;-54
2021/03/02 04:43:49;;;;;;;4.73;4.20;;;10.70;92.30;;;12.20;49.34;102664.38;4987702;28;107982;-52
2021/03/02 04:46:15;;;;;;;6.53;4.87;;;10.70;90.70;;;12.11;48.29;102659.19;4981345;27;97055;-55
2021/03/02 04:48:41;;;;;;;7.33;6.10;;;10.60;90.20;;;12.06;49.80;102652.19;4976508;27;100334;-54
2021/03/02 04:51:07;;;;;;;11.13;6.57;;;10.30;90.80;;;11.87;45.70;102655.03;4967317;27;98724;-54
2021/03/02 04:53:33;;;;;;;6.80;5.57;;;10.30;90.00;;;11.54;47.39;102655.28;4993255;27;100386;-55
2021/03/02 04:56:00;;;;;;;8.03;6.03;;;9.90;90.70;;;11.54;50.75;102664.06;4983454;27;98778;-56
2021/03/02 04:58:26;;;;;;;4.93;4.43;;;9.80;91.80;;;11.67;50.71;102663.97;5003714;27;100318;-56
2021/03/02 05:00:52;;;;;;;8.47;5.27;;;9.90;92.50;;;11.63;48.18;102665.78;4983805;27;98360;-54
2021/03/02 05:03:18;;;;;;;7.77;6.40;;;9.90;91.10;;;11.47;48.47;102654.44;4988683;27;96829;-55
2021/03/02 05:05:44;;;;;;;4.50;4.07;;;9.70;91.00;;;11.71;51.67;102657.78;4990968;28;96944;-55
2021/03/02 05:08:09;;;;;;;5.83;4.17;;;10.00;93.30;;;11.73;50.61;102662.19;4990444;27;98418;-55
2021/03/02 05:10:35;;;;;;;4.77;3.93;;;10.10;92.70;;;11.77;50.83;102658.59;4997922;28;99661;-55
2021/03/02 05:13:01;;;;;;;3.97;3.57;;;10.20;91.90;;;11.93;51.21;102659.38;4969746;27;97319;-58
2021/03/02 05:15:27;;;;;;;4.43;4.03;;;10.40;94.40;;;11.99;50.32;102659.31;4995594;28;97821;-53
2021/03/02 05:17:53;;;;;;;5.93;4.53;;;10.50;90.80;;;12.09;50.28;102662.75;4989179;27;110231;-54
2021/03/02 05:20:19;;;;;;;7.00;5.60;;;10.60;91.40;;;12.09;48.37;102655.69;4989858;27;96695;-54
2021/03/02 05:22:44;;;;;;;5.27;4.10;;;10.60;90.40;;;12.09;49.50;102666.25;4991651;28;102120;-55
2021/03/02 05:25:11;;;;;;;6.97;6.27;;;10.50;90.50;;;11.95;47.39;102662.88;4992713;28;96990;-54
2021/03/02 05:27:37;;;;;;;6.53;4.90;;;10.40;90.10;;;11.96;49.39;102661.09;4979476;28;105260;-54
2021/03/02 05:30:03;;;;;;;4.83;3.97;;;10.30;90.50;;;12.01;50.51;102660.19;4994489;27;99285;-55
2021/03/02 05:32:29;;;;;;;5.03;3.83;;;10.30;91.10;;;11.94;50.82;102649.66;4973109;27;97394;-56
2021/03/02 05:34:55;;;;;;;7.43;4.30;;;10.30;91.70;;;11.97;49.96;102649.63;5014914;27;97406;-55
2021/03/02 05:37:21;;;;;;;4.80;4.17;;;10.30;90.70;;;12.05;50.70;102658.38;4992370;27;100335;-56
2021/03/02 05:39:47;;;;;;;6.13;5.00;;;10.40;92.20;;;12.00;49.47;102655.75;5018204;27;97070;-53
2021/03/02 05:42:13;;;;;;;5.37;3.87;;;10.40;90.40;;;11.98;50.25;102662.84;4993933;27;96800;-55
2021/03/02 05:44:39;;;;;;;6.40;4.20;;;10.20;91.70;;;12.08;50.34;102669.81;4991728;27;98110;-54
2021/03/02 05:47:05;;;;;;;9.00;5.27;;;10.50;92.40;;;12.00;48.57;102671.63;5010295;27;97468;-54
2021/03/02 05:49:31;;;;;;;4.50;3.87;;;10.40;90.30;;;12.14;50.64;102664.44;4988632;27;99034;-54
2021/03/02 05:51:57;;;;;;;7.17;5.47;;;10.60;95.30;;;12.04;47.40;102673.38;4999302;27;99767;-55
2021/03/02 05:54:23;;;;;;;5.43;3.53;;;10.60;90.00;;;12.15;50.75;102671.50;4984076;27;100658;-53
2021/03/02 05:56:50;;;;;;;12.07;5.23;;;10.70;94.50;;;12.24;48.12;102674.94;5000002;28;99471;-56
2021/03/02 05:59:17;;;;;;;4.03;3.63;;;10.80;90.50;;;12.32;49.94;102670.44;4980268;28;97067;-53
2021/03/02 06:01:43;;;;;;;5.10;4.13;;;10.90;93.20;;;12.38;48.91;102662.44;4984302;27;97186;-52
2021/03/02 06:04:18;;;;;;;3.93;3.43;;;11.00;90.80;;;12.44;49.59;102670.28;4967962;27;104160;-52
2021/03/02 06:06:45;;;;;;;3.77;3.33;;;11.10;92.60;;;12.54;49.30;102664.00;4996143;28;97243;-56
2021/03/02 06:09:11;;;;;;;9.83;5.20;;;11.30;93.20;;;12.49;47.67;102665.84;5000655;27;97588;-55
2021/03/02 06:11:37;;;;;;;8.13;4.50;;;11.20;88.60;;;12.50;48.57;102672.88;4997209;27;96911;-56
2021/03/02 06:14:23;;;;;;;3.67;3.17;;;11.10;90.50;;;12.69;49.22;102669.09;5004192;27;103959;-60
2021/03/02 06:16:52;;;;;;;23.07;15.10;;;11.50;95.90;;;12.35;44.05;102662.47;5010358;27;98346;-56
2021/03/02 06:19:35;;;;;;;19.53;12.73;;;11.20;88.70;;;12.43;48.35;102666.75;4967444;27;100094;-56
2021/03/02 06:22:01;;;;;;;4.27;3.60;;;11.00;91.20;;;12.61;49.23;102671.00;4994944;28;97071;-56
2021/03/02 06:24:41;;;;;;;9.03;6.23;;;11.40;94.60;;;12.77;48.53;102674.31;4981002;27;97022;-54
2021/03/02 06:27:12;;;;;;;5.67;3.60;;;11.80;91.00;;;12.88;48.41;102671.53;4983085;28;98100;-54
2021/03/02 06:29:40;;;;;;;6.43;3.37;;;11.90;92.00;;;13.00;48.60;102664.25;4974121;27;98227;-55
2021/03/02 06:32:08;;;;;;;3.67;3.10;;;12.00;94.50;;;13.09;47.89;102668.56;4987118;27;97015;-57
2021/03/02 06:34:34;;;;;;;4.20;2.83;;;12.20;90.20;;;13.19;47.78;102664.94;5000559;27;97470;-58
2021/03/02 06:37:04;;;;;;;3.63;3.20;;;12.30;92.90;;;13.45;47.33;102663.63;4977281;28;97597;-55
2021/03/02 06:39:42;;;;;;;3.70;3.30;;;12.80;92.60;;;13.53;47.06;102664.41;4990583;27;102762;-56
2021/03/02 06:42:19;;;;;;;3.77;3.13;;;12.90;89.80;;;13.68;46.73;102669.44;4990684;28;97423;-56
2021/03/02 06:44:50;;;;;;;4.77;3.97;;;13.00;92.40;;;13.63;45.79;102672.19;5009262;27;97301;-56
2021/03/02 06:47:36;;;;;;;3.20;2.83;;;12.80;85.90;;;13.79;46.62;102656.00;4972595;27;100558;-55
2021/03/02 06:50:21;;;;;;;6.43;4.27;;;13.10;93.00;;;13.87;45.65;102670.88;4997020;28;97290;-57
2021/03/02 06:52:47;;;;;;;3.93;2.90;;;13.30;85.70;;;13.85;46.05;102667.38;4994225;27;96978;-53
2021/03/02 06:55:16;;;;;;;3.07;2.63;;;13.00;90.70;;;13.97;46.38;102672.47;4973157;28;97332;-53
2021/03/02 06:57:50;;;;;;;4.47;3.60;;;13.20;92.80;;;14.05;45.94;102679.44;4991574;27;97531;-54
2021/03/02 07:00:30;;;;;;;13.17;9.73;;;13.50;90.30;;;13.92;43.08;102673.47;4974014;27;99399;-53
2021/03/02 07:02:56;;;;;;;3.60;3.23;;;13.20;84.30;;;13.80;45.68;102679.84;4986476;28;97083;-55
2021/03/02 07:05:22;;;;;;;11.63;7.70;;;12.80;87.30;;;13.53;42.71;102675.00;4986061;28;97846;-58
2021/03/02 07:07:55;;;;;;;10.03;6.83;;;12.30;87.10;;;13.18;43.90;102679.09;4976815;28;97930;-56
2021/03/02 07:10:22;;;;;;;10.40;7.20;;;11.80;88.50;;;13.00;46.97;102684.59;5007557;27;97488;-57
2021/03/02 07:12:51;;;;;;;8.77;5.80;;;11.40;90.70;;;12.88;44.20;102679.47;4984883;28;97065;-54
2021/03/02 07:15:18;;;;;;;6.90;5.93;;;11.30;90.40;;;12.58;47.96;102686.88;4994170;27;97458;-58
2021/03/02 07:17:48;;;;;;;9.97;6.77;;;11.00;91.80;;;12.63;45.86;102678.91;4983056;28;100112;-54
2021/03/02 07:20:18;;;;;;;7.53;5.53;;;11.10;91.50;;;12.57;48.60;102678.97;4976471;27;97086;-54
2021/03/02 07:22:53;;;;;;;3.70;3.27;;;11.00;92.30;;;12.70;48.72;102675.28;4979947;28;98817;-58
2021/03/02 07:25:22;;;;;;;3.77;3.17;;;11.20;93.80;;;12.80;48.95;102672.50;4991719;27;97518;-53
2021/03/02 07:27:59;;;;;;;12.20;8.97;;;11.50;93.70;;;12.70;45.61;102670.84;4985201;27;97088;-56
2021/03/02 07:30:25;;;;;;;13.23;9.10;;;11.50;91.20;;;12.49;44.94;102676.41;4974995;27;98151;-55
2021/03/02 07:32:52;;;;;;;11.93;9.40;;;11.30;91.40;;;12.45;45.54;102677.34;5000178;27;96899;-54
2021/03/02 07:35:23;;;;;;;5.30;4.60;;;11.10;92.00;;;12.43;47.65;102681.75;4991469;27;97417;-54
2021/03/02 07:37:50;;;;;;;7.23;6.53;;;11.00;92.70;;;12.24;49.05;102680.22;4983368;28;99385;-54
2021/03/02 07:40:19;;;;;;;5.13;4.37;;;10.90;93.10;;;12.32;49.14;102679.25;4987923;27;99243;-54
2021/03/02 07:42:45;;;;;;;8.53;6.10;;;10.90;93.60;;;12.30;49.10;102689.00;4978750;28;97926;-54
2021/03/02 07:45:12;;;;;;;7.20;4.50;;;11.00;93.20;;;12.21;47.08;102687.31;4990606;28;98572;-55
2021/03/02 07:47:48;;;;;;;9.10;7.33;;;10.90;93.50;;;12.11;46.85;102685.63;4989048;27;104757;-55
2021/03/02 07:50:31;;;;;;;3.87;3.30;;;10.90;93.40;;;11.99;48.51;102679.59;4981724;27;98500;-55
2021/03/02 07:53:16;;;;;;;4.43;3.00;;;10.80;94.20;;;12.05;48.10;102676.91;4987124;27;96908;-54
2021/03/02 07:55:43;;;;;;;9.90;6.47;;;10.80;94.20;;;12.21;48.92;102681.13;4990964;27;96917;-54
2021/03/02 07:58:21;;;;;;;5.20;4.70;;;11.00;93.50;;;12.17;47.55;102685.59;4987208;27;97750;-60
2021/03/02 08:00:49;;;;;;;9.53;7.23;;;11.00;94.00;;;11.88;46.22;102682.34;5004278;27;99793;-54
2021/03/02 08:03:25;;;;;;;10.43;7.60;;;10.90;93.20;;;11.95;46.83;102689.31;4982251;27;97823;-55
2021/03/02 08:06:12;;;;;;;7.57;5.30;;;10.90;93.60;;;12.04;50.60;102689.25;4989757;27;97053;-54
2021/03/02 08:08:39;;;;;;;4.57;3.43;;;10.90;94.40;;;12.39;50.17;102685.34;4981335;27;104471;-55
2021/03/02 08:11:33;;;;;;;3.17;2.87;;;11.30;95.30;;;12.37;46.43;102688.03;4998495;28;100479;-55
2021/03/02 08:14:01;;;;;;;8.63;5.90;;;11.50;93.70;;;12.43;49.51;102692.34;4980908;27;96833;-55
2021/03/02 08:16:53;;;;;;;9.87;7.50;;;11.50;93.80;;;12.33;46.70;102691.59;4990578;27;97084;-54
2021/03/02 08:20:02;;;;;;;9.33;6.33;;;11.50;93.10;;;12.76;49.28;102691.97;4982842;27;97603;-56
2021/03/02 08:22:30;;;;;;;10.00;7.13;;;11.80;95.20;;;12.86;47.54;102694.50;4991809;27;98418;-55
2021/03/02 08:25:02;;;;;;;9.03;7.63;;;12.10;92.70;;;12.84;46.24;102691.00;4986750;27;96919;-54
2021/03/02 08:27:45;;;;;;;9.07;5.90;;;12.10;92.00;;;12.92;48.53;102692.66;4993550;28;98947;-55
2021/03/02 08:30:19;;;;;;;4.97;4.43;;;12.00;94.20;;;13.05;48.42;102693.38;4984013;27;103073;-60
2021/03/02 08:32:45;;;;;;;4.03;3.20;;;12.20;93.60;;;13.45;47.98;102692.78;4992387;27;101244;-56
2021/03/02 08:35:16;;;;;;;4.70;3.50;;;12.70;94.40;;;13.57;46.92;102687.31;5001212;27;97119;-53
2021/03/02 08:37:44;;;;;;;9.43;7.63;;;13.00;92.60;;;13.36;44.84;102688.53;5008888;27;97547;-55
2021/03/02 08:40:15;;;;;;;7.77;4.77;;;12.80;91.40;;;13.52;46.09;102694.47;4985181;27;98823;-55
2021/03/02 08:43:20;;;;;;;4.53;3.93;;;12.80;92.00;;;13.45;44.64;102687.50;4977672;27;103720;-55
2021/03/02 08:45:57;;;;;;;11.40;7.93;;;12.80;91.80;;;13.25;44.13;102701.06;5000826;27;97802;-53
2021/03/02 08:48:34;;;;;;;5.27;4.77;;;12.70;91.20;;;13.33;45.24;102693.88;4990471;27;97188;-51
2021/03/02 08:51:01;;;;;;;4.90;3.40;;;12.70;92.20;;;13.49;46.60;102697.19;4986170;27;98206;-55
2021/03/02 08:53:49;;;;;;;3.80;3.07;;;12.80;93.00;;;13.97;46.27;102693.69;5014453;27;98557;-55
2021/03/02 08:56:15;;;;;;;3.33;2.90;;;13.40;92.80;;;14.51;45.16;102696.28;4995818;27;100183;-56
2021/03/02 08:58:56;;;;;;;3.40;2.70;;;14.20;92.00;;;14.92;44.35;102699.84;4999112;27;96915;-55
2021/03/02 09:01:21;;;;;;;7.30;5.67;;;14.90;90.60;;;15.00;41.45;102702.34;4966913;27;97644;-56
2021/03/02 09:03:48;;;;;;;4.57;3.83;;;15.10;85.60;;;15.06;42.53;102697.78;4997904;27;97318;-53
2021/03/02 09:06:18;;;;;;;4.20;3.47;;;15.10;86.90;;;14.99;42.41;102698.81;4997118;27;98290;-61
2021/03/02 09:09:03;;;;;;;5.50;3.27;;;14.90;88.50;;;15.08;43.81;102695.94;4992468;28;97415;-56
2021/03/02 09:11:43;;;;;;;6.00;4.97;;;14.90;88.90;;;15.00;43.48;102697.91;4954421;27;101259;-51
2021/03/02 09:14:25;;;;;;;7.37;5.37;;;14.80;88.80;;;14.95;43.67;102706.88;4979749;28;97241;-53
2021/03/02 09:16:52;;;;;;;10.53;7.90;;;14.70;87.60;;;14.88;42.12;102701.69;4978137;27;97165;-56
2021/03/02 09:19:20;;;;;;;5.47;4.27;;;14.70;87.20;;;14.73;42.79;102703.78;5007894;27;97630;-54
2021/03/02 09:21:52;;;;;;;9.27;6.83;;;14.40;88.40;;;14.58;43.94;102703.19;4972980;27;99606;-53
2021/03/02 09:24:24;;;;;;;12.80;9.70;;;14.30;89.60;;;14.35;43.96;102715.16;4991268;28;98264;-56
2021/03/02 09:26:59;;;;;;;12.50;8.53;;;14.00;87.90;;;14.35;42.61;102707.19;5007088;27;97511;-55
2021/03/02 09:29:29;;;;;;;10.03;8.30;;;14.10;88.10;;;14.33;42.55;102706.34;4972211;28;97039;-55
2021/03/02 09:32:03;;;;;;;4.40;3.43;;;14.10;88.00;;;14.52;44.96;102703.34;4982718;27;99451;-54
2021/03/02 09:34:37;;;;;;;10.23;8.37;;;14.30;90.40;;;14.58;43.38;102703.19;4990164;27;97139;-56
2021/03/02 09:37:09;;;;;;;12.20;8.57;;;14.40;87.90;;;14.84;43.73;102700.00;5007912;27;97346;-55
2021/03/02 09:39:36;;;;;;;4.57;3.43;;;14.70;89.80;;;15.14;43.64;102702.91;4991813;27;97353;-55
2021/03/02 09:42:17;;;;;;;12.57;8.13;;;15.10;89.40;;;15.28;40.81;102703.47;4980592;27;101046;-56
2021/03/02 09:44:46;;;;;;;5.10;4.47;;;15.40;84.20;;;15.50;42.38;102703.84;4971270;28;101265;-54
2021/03/02 09:47:18;;;;;;;10.77;7.40;;;15.60;86.30;;;15.64;42.05;102699.09;4991661;28;96998;-54
2021/03/02 09:49:47;;;;;;;4.10;3.30;;;15.80;84.70;;;15.80;41.96;102704.03;4981983;27;104182;-55
2021/03/02 09:52:44;;;;;;;4.80;3.77;;;16.00;85.60;;;15.98;41.38;102704.44;4992742;28;97817;-55
2021/03/02 09:55:17;;;;;;;5.67;4.10;;;16.20;83.20;;;16.04;41.48;102700.72;4991235;27;102783;-54
2021/03/02 09:57:58;;;;;;;5.27;4.10;;;16.20;83.50;;;16.13;40.19;102699.63;5006758;27;97047;-56
2021/03/02 10:00:25;;;;;;;7.33;6.17;;;16.40;82.70;;;16.05;39.35;102698.03;4989098;27;103660;-56
2021/03/02 10:03:14;;;;;;;9.10;7.30;;;16.30;80.80;;;16.03;39.24;102699.00;4995726;28;97319;-53
2021/03/02 10:06:03;;;;;;;14.13;8.50;;;16.20;80.70;;;15.94;41.59;102693.94;4963628;27;97825;-54
2021/03/02 10:08:47;;;;;;;8.77;5.73;;;15.90;83.00;;;15.98;40.49;102700.91;4995175;27;101495;-56
2021/03/02 10:11:13;;;;;;;9.20;7.60;;;16.00;84.30;;;16.01;40.66;102698.16;4982312;28;99353;-56
2021/03/02 10:13:59;;;;;;;5.33;4.33;;;16.10;82.50;;;16.21;41.32;102701.19;4983882;27;96935;-56
2021/03/02 10:16:35;;;;;;;4.57;3.83;;;16.30;83.70;;;16.30;41.11;102702.72;4990925;28;99728;-55
2021/03/02 10:19:14;;;;;;;9.40;7.13;;;16.50;83.30;;;16.30;40.48;102706.25;4983916;27;97659;-54
2021/03/02 10:21:46;;;;;;;4.73;4.17;;;16.50;80.80;;;16.43;40.77;102705.91;4992276;27;97031;-54
2021/03/02 10:24:29;;;;;;;4.10;3.70;;;16.70;82.40;;;16.51;40.55;102710.13;4990102;27;99356;-54
2021/03/02 10:26:57;;;;;;;5.67;5.10;;;16.80;82.30;;;16.54;40.41;102712.69;5010361;27;103758;-53